Time;durP1;ratioP1;P1;durP2;ratioP2;P2;SDS_P1;SDS_P2;PMS_P1;PMS_P2;Temp;Humidity;BMP_temperature;BMP_pressure;BME280_temperature;BME280_humidity;BME280_pressure;Samples;Min_cycle;Max_cycle;Signal;HPM_P1;HPM_P2
2023/03/15 00:00:11;;;;;;;8.17;2.60;;;;;;;;;;517750;28;1382;-72
2023/03/15 00:00:26;;;;;;;9.90;2.60;;;;;;;;;;520764;28;1510;-69
2023/03/15 00:00:42;;;;;;;9.80;2.60;;;;;;;;;;517342;28;1467;-70
2023/03/15 00:00:57;;;;;;;8.52;2.40;;;;;;;;;;518255;28;1370;-71
2023/03/15 00:01:17;;;;;;;8.95;2.50;;;;;;;;;;517910;28;1518;-71
2023/03/15 00:01:32;;;;;;;9.30;2.83;;;;;;;;;;518573;28;1344;-71
2023/03/15 00:01:48;;;;;;;9.35;2.70;;;;;;;;;;516607;28;1467;-71
2023/03/15 00:02:04;;;;;;;8.50;2.60;;;;;;;;;;516811;28;1309;-71
2023/03/15 00:02:21;;;;;;;8.77;2.50;;;;;;;;;;519292;28;1526;-71
2023/03/15 00:02:36;;;;;;;11.27;2.72;;;;;;;;;;520997;28;1371;-71
2023/03/15 00:02:51;;;;;;;12.50;2.97;;;;;;;;;;516463;28;1504;-71
2023/03/15 00:03:07;;;;;;;11.77;2.80;;;;;;;;;;516922;28;1330;-71
2023/03/15 00:03:25;;;;;;;9.07;2.50;;;;;;;;;;519191;28;1376;-70
2023/03/15 00:03:42;;;;;;;7.57;2.45;;;;;;;;;;518572;28;1661;-71
2023/03/15 00:03:57;;;;;;;6.82;2.53;;;;;;;;;;522516;28;1448;-70
2023/03/15 00:04:13;;;;;;;8.63;2.50;;;;;;;;;;518968;28;1192;-70
2023/03/15 00:04:31;;;;;;;8.77;2.53;;;;;;;;;;519468;28;1461;-71
2023/03/15 00:04:46;;;;;;;8.85;2.80;;;;;;;;;;519527;28;1362;-70
2023/03/15 00:05:02;;;;;;;9.93;2.83;;;;;;;;;;520001;28;1399;-71
2023/03/15 00:05:17;;;;;;;9.45;2.80;;;;;;;;;;521198;28;1652;-70
2023/03/15 00:05:33;;;;;;;8.73;2.57;;;;;;;;;;519338;28;1163;-70
2023/03/15 00:05:51;;;;;;;8.70;2.50;;;;;;;;;;523155;28;1982;-70
2023/03/15 00:06:06;;;;;;;8.75;2.60;;;;;;;;;;520047;28;1409;-70
2023/03/15 00:06:21;;;;;;;9.38;2.70;;;;;;;;;;519119;28;1581;-69
2023/03/15 00:06:37;;;;;;;9.90;2.70;;;;;;;;;;519570;28;1284;-70
2023/03/15 00:06:52;;;;;;;9.27;2.70;;;;;;;;;;519567;28;1264;-70
2023/03/15 00:07:08;;;;;;;9.57;2.80;;;;;;;;;;518741;28;1590;-70
2023/03/15 00:07:26;;;;;;;9.13;2.78;;;;;;;;;;519061;28;1487;-70
2023/03/15 00:07:41;;;;;;;7.97;2.63;;;;;;;;;;517205;28;1730;-71
2023/03/15 00:07:57;;;;;;;8.50;2.57;;;;;;;;;;519565;28;1434;-70
2023/03/15 00:08:13;;;;;;;8.93;2.50;;;;;;;;;;518262;28;1279;-70
2023/03/15 00:08:31;;;;;;;8.43;2.58;;;;;;;;;;518846;28;1708;-71
2023/03/15 00:08:47;;;;;;;8.80;2.67;;;;;;;;;;518924;28;1246;-71
2023/03/15 00:09:02;;;;;;;9.17;2.53;;;;;;;;;;518158;28;1494;-70
2023/03/15 00:09:18;;;;;;;9.13;2.53;;;;;;;;;;517757;28;1486;-70
2023/03/15 00:09:33;;;;;;;9.30;2.53;;;;;;;;;;520967;28;1334;-70
2023/03/15 00:09:49;;;;;;;8.52;2.40;;;;;;;;;;521032;28;1538;-70
2023/03/15 00:10:05;;;;;;;9.73;2.60;;;;;;;;;;523545;28;1674;-70
2023/03/15 00:10:20;;;;;;;10.13;2.70;;;;;;;;;;520411;28;1324;-70
2023/03/15 00:10:39;;;;;;;7.97;2.50;;;;;;;;;;515910;28;1135;-70
2023/03/15 00:10:54;;;;;;;7.30;2.40;;;;;;;;;;521152;28;1609;-71
2023/03/15 00:11:10;;;;;;;8.95;2.40;;;;;;;;;;518530;28;1514;-70
2023/03/15 00:11:25;;;;;;;10.60;2.40;;;;;;;;;;515915;28;1247;-71
2023/03/15 00:11:41;;;;;;;11.27;2.50;;;;;;;;;;517869;28;1614;-70
2023/03/15 00:11:56;;;;;;;9.07;2.38;;;;;;;;;;519769;28;1290;-70
2023/03/15 00:12:11;;;;;;;8.90;2.50;;;;;;;;;;517385;28;1187;-70
2023/03/15 00:12:26;;;;;;;10.77;2.80;;;;;;;;;;519894;28;1443;-70
2023/03/15 00:12:42;;;;;;;10.87;2.77;;;;;;;;;;516388;28;1283;-71
2023/03/15 00:12:57;;;;;;;10.23;2.60;;;;;;;;;;519083;28;1507;-70
2023/03/15 00:13:14;;;;;;;9.93;2.63;;;;;;;;;;517878;28;1244;-71
2023/03/15 00:13:30;;;;;;;10.88;2.72;;;;;;;;;;516722;28;2051;-70
2023/03/15 00:13:45;;;;;;;10.93;2.65;;;;;;;;;;518156;28;1544;-70
2023/03/15 00:14:01;;;;;;;12.20;2.93;;;;;;;;;;517985;28;1390;-70
2023/03/15 00:14:17;;;;;;;10.87;2.90;;;;;;;;;;519709;28;1464;-70
2023/03/15 00:14:33;;;;;;;9.38;2.88;;;;;;;;;;516079;28;1279;-70
2023/03/15 00:14:49;;;;;;;8.57;2.50;;;;;;;;;;517668;28;1210;-70
2023/03/15 00:15:05;;;;;;;7.57;2.60;;;;;;;;;;520869;28;1734;-70
2023/03/15 00:15:20;;;;;;;9.38;3.10;;;;;;;;;;521286;28;1422;-70
2023/03/15 00:15:47;;;;;;;10.93;2.93;;;;;;;;;;521308;28;1372;-71
2023/03/15 00:16:02;;;;;;;9.27;2.75;;;;;;;;;;522081;28;1360;-70
2023/03/15 00:16:18;;;;;;;9.63;2.90;;;;;;;;;;522306;28;1413;-69
2023/03/15 00:16:33;;;;;;;8.15;2.63;;;;;;;;;;523272;28;1646;-69
2023/03/15 00:16:49;;;;;;;8.30;2.40;;;;;;;;;;521736;28;1374;-71
2023/03/15 00:17:04;;;;;;;8.77;2.50;;;;;;;;;;522119;28;1437;-70
2023/03/15 00:17:21;;;;;;;8.50;2.60;;;;;;;;;;519438;28;1514;-70
2023/03/15 00:17:36;;;;;;;7.38;2.30;;;;;;;;;;518447;28;1130;-70
2023/03/15 00:17:52;;;;;;;7.30;2.30;;;;;;;;;;516774;28;1315;-70
2023/03/15 00:18:07;;;;;;;9.35;2.63;;;;;;;;;;518672;28;1813;-70
2023/03/15 00:18:22;;;;;;;10.03;2.80;;;;;;;;;;517725;28;1238;-71
2023/03/15 00:18:38;;;;;;;9.60;2.60;;;;;;;;;;519793;28;1373;-71
2023/03/15 00:18:54;;;;;;;9.63;2.60;;;;;;;;;;517665;28;1215;-71
2023/03/15 00:19:10;;;;;;;9.20;2.60;;;;;;;;;;518215;28;1463;-71
2023/03/15 00:19:25;;;;;;;8.35;2.42;;;;;;;;;;517964;28;1483;-70
2023/03/15 00:19:40;;;;;;;8.77;2.67;;;;;;;;;;517884;28;1832;-71
2023/03/15 00:19:56;;;;;;;8.90;2.70;;;;;;;;;;515000;28;1228;-70
2023/03/15 00:20:13;;;;;;;7.60;2.60;;;;;;;;;;517657;28;1352;-71
2023/03/15 00:20:29;;;;;;;7.53;2.45;;;;;;;;;;517243;28;1404;-70
2023/03/15 00:20:46;;;;;;;7.35;2.40;;;;;;;;;;519114;28;1436;-70
2023/03/15 00:21:01;;;;;;;8.02;2.60;;;;;;;;;;518797;28;1162;-70
2023/03/15 00:21:16;;;;;;;8.73;2.67;;;;;;;;;;521519;28;1791;-71
2023/03/15 00:21:32;;;;;;;8.95;2.45;;;;;;;;;;521682;28;1608;-71
2023/03/15 00:21:48;;;;;;;9.18;2.40;;;;;;;;;;520353;28;1307;-71
2023/03/15 00:22:03;;;;;;;8.87;2.57;;;;;;;;;;516081;28;1297;-71
2023/03/15 00:22:21;;;;;;;9.70;2.67;;;;;;;;;;515875;28;1369;-70
2023/03/15 00:22:37;;;;;;;9.50;2.88;;;;;;;;;;517188;28;1360;-70
2023/03/15 00:22:52;;;;;;;9.03;2.60;;;;;;;;;;516075;28;1679;-71
2023/03/15 00:23:08;;;;;;;8.50;2.70;;;;;;;;;;516811;28;1282;-71
2023/03/15 00:23:24;;;;;;;7.90;2.70;;;;;;;;;;516869;28;1305;-70
2023/03/15 00:23:39;;;;;;;10.20;2.80;;;;;;;;;;517699;28;1444;-70
2023/03/15 00:23:55;;;;;;;11.10;2.90;;;;;;;;;;519475;28;1399;-70
2023/03/15 00:24:10;;;;;;;9.25;2.55;;;;;;;;;;518755;28;1430;-70
2023/03/15 00:24:26;;;;;;;8.37;2.40;;;;;;;;;;519248;28;1383;-70
2023/03/15 00:24:41;;;;;;;7.90;2.50;;;;;;;;;;518446;28;1753;-72
2023/03/15 00:24:57;;;;;;;7.78;2.50;;;;;;;;;;518324;28;1487;-70
2023/03/15 00:25:12;;;;;;;8.10;2.60;;;;;;;;;;517767;28;1284;-71
2023/03/15 00:25:28;;;;;;;8.68;2.60;;;;;;;;;;518408;28;1443;-72
2023/03/15 00:25:45;;;;;;;9.13;2.60;;;;;;;;;;520315;28;1920;-71
2023/03/15 00:26:00;;;;;;;9.23;2.70;;;;;;;;;;520418;28;1090;-71
2023/03/15 00:26:15;;;;;;;9.30;2.58;;;;;;;;;;521655;28;2453;-71
2023/03/15 00:26:31;;;;;;;8.67;2.43;;;;;;;;;;522339;28;1104;-71
2023/03/15 00:26:46;;;;;;;8.70;2.42;;;;;;;;;;522826;28;1346;-71
2023/03/15 00:27:01;;;;;;;10.30;2.57;;;;;;;;;;523974;28;1289;-70
2023/03/15 00:27:17;;;;;;;11.40;2.67;;;;;;;;;;521264;28;1347;-70
2023/03/15 00:27:32;;;;;;;9.60;2.47;;;;;;;;;;520458;28;1391;-70
2023/03/15 00:27:47;;;;;;;8.03;2.40;;;;;;;;;;518108;28;1780;-70
2023/03/15 00:28:03;;;;;;;9.10;2.50;;;;;;;;;;518076;28;1312;-70
2023/03/15 00:28:20;;;;;;;9.70;2.65;;;;;;;;;;515646;28;1150;-71
2023/03/15 00:28:35;;;;;;;8.93;2.53;;;;;;;;;;518447;28;1303;-70
2023/03/15 00:28:50;;;;;;;8.30;2.33;;;;;;;;;;517677;28;1227;-70
2023/03/15 00:29:06;;;;;;;8.73;2.50;;;;;;;;;;520922;28;1283;-71
2023/03/15 00:29:21;;;;;;;10.13;2.80;;;;;;;;;;519730;28;1301;-70
2023/03/15 00:29:36;;;;;;;9.43;2.63;;;;;;;;;;519396;28;1205;-70
2023/03/15 00:29:52;;;;;;;8.07;2.47;;;;;;;;;;518956;28;1052;-70
2023/03/15 00:30:08;;;;;;;8.77;2.40;;;;;;;;;;519406;28;1279;-70
2023/03/15 00:30:23;;;;;;;10.75;2.58;;;;;;;;;;516228;28;1227;-70
2023/03/15 00:30:39;;;;;;;10.77;2.60;;;;;;;;;;516900;28;1340;-70
2023/03/15 00:31:04;;;;;;;10.48;2.60;;;;;;;;;;518709;28;1378;-71
2023/03/15 00:31:25;;;;;;;11.90;2.97;;;;;;;;;;519205;28;1420;-70
2023/03/15 00:31:40;;;;;;;12.63;2.95;;;;;;;;;;521120;28;1059;-70
2023/03/15 00:31:55;;;;;;;12.23;2.90;;;;;;;;;;519763;28;1351;-71
2023/03/15 00:32:11;;;;;;;12.43;2.85;;;;;;;;;;521402;28;1451;-70
2023/03/15 00:32:26;;;;;;;13.70;2.90;;;;;;;;;;520856;28;1389;-70
2023/03/15 00:32:41;;;;;;;11.43;2.88;;;;;;;;;;518946;28;1244;-70
2023/03/15 00:32:57;;;;;;;8.97;2.67;;;;;;;;;;520394;28;1393;-70
2023/03/15 00:33:14;;;;;;;9.00;2.60;;;;;;;;;;521317;28;1361;-70
2023/03/15 00:33:33;;;;;;;10.02;2.50;;;;;;;;;;517993;28;1597;-70
2023/03/15 00:33:52;;;;;;;12.38;2.65;;;;;;;;;;516959;28;1580;-71
2023/03/15 00:34:07;;;;;;;11.90;2.80;;;;;;;;;;517007;28;1366;-70
2023/03/15 00:34:25;;;;;;;11.97;2.90;;;;;;;;;;517663;28;1075;-71
2023/03/15 00:34:47;;;;;;;11.55;2.90;;;;;;;;;;517467;28;1281;-71
2023/03/15 00:35:03;;;;;;;9.20;2.72;;;;;;;;;;516702;28;1670;-70
2023/03/15 00:35:19;;;;;;;9.30;2.72;;;;;;;;;;517763;28;1203;-70
2023/03/15 00:35:42;;;;;;;9.98;2.70;;;;;;;;;;517902;28;1324;-71
2023/03/15 00:35:57;;;;;;;10.80;2.65;;;;;;;;;;517976;28;1464;-70
2023/03/15 00:36:13;;;;;;;11.30;2.70;;;;;;;;;;520311;28;1341;-70
2023/03/15 00:36:28;;;;;;;11.10;2.90;;;;;;;;;;522885;28;1371;-70
2023/03/15 00:36:44;;;;;;;10.63;2.90;;;;;;;;;;521703;28;1279;-70
2023/03/15 00:37:00;;;;;;;9.75;2.60;;;;;;;;;;521419;28;1433;-70
2023/03/15 00:37:16;;;;;;;9.83;2.60;;;;;;;;;;517727;28;1222;-70
2023/03/15 00:37:31;;;;;;;9.82;2.70;;;;;;;;;;517359;28;1111;-70
2023/03/15 00:37:46;;;;;;;9.30;2.58;;;;;;;;;;519486;28;1349;-70
2023/03/15 00:38:03;;;;;;;10.07;2.50;;;;;;;;;;518415;28;1274;-69
2023/03/15 00:38:20;;;;;;;12.38;2.80;;;;;;;;;;518069;28;1247;-70
2023/03/15 00:38:37;;;;;;;11.27;2.70;;;;;;;;;;517474;28;1447;-71
2023/03/15 00:38:54;;;;;;;10.23;2.78;;;;;;;;;;518618;28;1303;-71
2023/03/15 00:39:10;;;;;;;9.98;2.90;;;;;;;;;;522196;28;1414;-70
2023/03/15 00:39:25;;;;;;;9.82;2.80;;;;;;;;;;519023;28;1152;-70
2023/03/15 00:39:44;;;;;;;9.27;2.80;;;;;;;;;;517875;28;1252;-70
2023/03/15 00:39:59;;;;;;;9.55;2.72;;;;;;;;;;517658;28;1455;-70
2023/03/15 00:40:15;;;;;;;10.23;2.63;;;;;;;;;;515825;28;1228;-71
2023/03/15 00:40:30;;;;;;;9.82;2.63;;;;;;;;;;515994;28;1240;-70
2023/03/15 00:40:45;;;;;;;9.90;2.63;;;;;;;;;;516930;28;1150;-70
2023/03/15 00:41:14;;;;;;;9.67;2.60;;;;;;;;;;518340;28;1521;-70
2023/03/15 00:41:29;;;;;;;10.60;2.72;;;;;;;;;;520789;28;1569;-71
2023/03/15 00:41:45;;;;;;;9.73;2.70;;;;;;;;;;519725;28;1425;-71
2023/03/15 00:42:00;;;;;;;10.07;2.75;;;;;;;;;;517326;28;1300;-70
2023/03/15 00:42:16;;;;;;;10.35;2.70;;;;;;;;;;518348;28;1108;-70
2023/03/15 00:42:32;;;;;;;10.40;2.60;;;;;;;;;;519378;28;1256;-71
2023/03/15 00:42:49;;;;;;;11.10;2.70;;;;;;;;;;520704;28;1051;-70
2023/03/15 00:43:04;;;;;;;10.40;2.65;;;;;;;;;;520613;28;1476;-71
2023/03/15 00:43:19;;;;;;;9.17;2.57;;;;;;;;;;519177;28;1322;-70
2023/03/15 00:43:35;;;;;;;10.43;2.90;;;;;;;;;;521158;28;2431;-70
2023/03/15 00:43:51;;;;;;;10.38;3.03;;;;;;;;;;521848;28;1250;-70
2023/03/15 00:44:06;;;;;;;8.93;2.80;;;;;;;;;;517172;28;1204;-70
2023/03/15 00:44:25;;;;;;;9.30;2.70;;;;;;;;;;518675;28;1337;-70
2023/03/15 00:44:41;;;;;;;9.63;2.55;;;;;;;;;;517888;28;1299;-70
2023/03/15 00:44:57;;;;;;;10.05;2.58;;;;;;;;;;519410;28;1339;-70
2023/03/15 00:45:12;;;;;;;9.73;2.67;;;;;;;;;;519657;28;1079;-70
2023/03/15 00:45:27;;;;;;;9.05;2.60;;;;;;;;;;518728;28;1319;-71
2023/03/15 00:45:44;;;;;;;9.27;2.60;;;;;;;;;;518921;28;1265;-72
2023/03/15 00:46:00;;;;;;;10.07;2.70;;;;;;;;;;517475;28;1334;-70
2023/03/15 00:46:17;;;;;;;10.73;2.80;;;;;;;;;;515347;28;1246;-70
2023/03/15 00:46:32;;;;;;;11.13;2.67;;;;;;;;;;514933;28;1263;-70
2023/03/15 00:46:48;;;;;;;10.73;2.63;;;;;;;;;;517202;28;1236;-70
2023/03/15 00:47:03;;;;;;;10.77;2.93;;;;;;;;;;517897;28;1371;-70
2023/03/15 00:47:18;;;;;;;10.00;2.80;;;;;;;;;;517370;28;1211;-71
2023/03/15 00:47:34;;;;;;;9.47;2.57;;;;;;;;;;520511;28;1275;-71
2023/03/15 00:47:51;;;;;;;9.93;2.63;;;;;;;;;;519769;28;1316;-71
2023/03/15 00:48:06;;;;;;;11.25;2.65;;;;;;;;;;519333;28;1266;-70
2023/03/15 00:48:21;;;;;;;10.18;2.60;;;;;;;;;;520466;28;1167;-70
2023/03/15 00:48:37;;;;;;;10.10;2.80;;;;;;;;;;521852;28;1313;-70
2023/03/15 00:48:52;;;;;;;11.27;2.88;;;;;;;;;;520854;28;1266;-70
2023/03/15 00:49:07;;;;;;;10.50;3.10;;;;;;;;;;523036;28;1340;-70
2023/03/15 00:49:23;;;;;;;9.00;2.90;;;;;;;;;;521693;28;1286;-71
2023/03/15 00:49:39;;;;;;;9.05;2.70;;;;;;;;;;519641;28;1271;-70
2023/03/15 00:49:54;;;;;;;10.80;2.78;;;;;;;;;;514853;28;1250;-69
2023/03/15 00:50:10;;;;;;;10.80;2.80;;;;;;;;;;519768;28;1358;-71
2023/03/15 00:50:25;;;;;;;10.15;2.70;;;;;;;;;;517478;28;1243;-70
2023/03/15 00:50:40;;;;;;;10.93;2.87;;;;;;;;;;518884;28;1223;-70
2023/03/15 00:51:07;;;;;;;10.57;2.92;;;;;;;;;;519442;28;1288;-71
2023/03/15 00:51:23;;;;;;;9.07;2.70;;;;;;;;;;521148;28;1396;-71
2023/03/15 00:51:38;;;;;;;9.47;2.70;;;;;;;;;;517966;28;1219;-71
2023/03/15 00:51:54;;;;;;;9.97;2.93;;;;;;;;;;520552;28;1273;-71
2023/03/15 00:52:11;;;;;;;10.30;3.08;;;;;;;;;;519805;28;1342;-71
2023/03/15 00:52:26;;;;;;;9.55;3.00;;;;;;;;;;518850;28;1428;-70
2023/03/15 00:52:42;;;;;;;8.38;2.78;;;;;;;;;;519697;28;999;-71
2023/03/15 00:52:57;;;;;;;8.93;2.70;;;;;;;;;;521830;28;1362;-71
2023/03/15 00:53:12;;;;;;;9.20;2.77;;;;;;;;;;518524;28;1433;-71
2023/03/15 00:53:28;;;;;;;9.32;2.70;;;;;;;;;;519466;28;1290;-71
2023/03/15 00:53:45;;;;;;;9.10;2.70;;;;;;;;;;518941;28;1309;-70
2023/03/15 00:54:00;;;;;;;9.40;2.65;;;;;;;;;;521465;28;1600;-71
2023/03/15 00:54:16;;;;;;;9.73;2.72;;;;;;;;;;520843;28;1522;-71
2023/03/15 00:54:32;;;;;;;10.17;2.70;;;;;;;;;;520213;28;1264;-71
2023/03/15 00:54:52;;;;;;;10.13;2.60;;;;;;;;;;520330;28;1506;-72
2023/03/15 00:55:12;;;;;;;10.32;2.65;;;;;;;;;;521585;28;1280;-71
2023/03/15 00:55:27;;;;;;;9.75;2.78;;;;;;;;;;518449;28;1342;-71
2023/03/15 00:55:43;;;;;;;9.80;2.80;;;;;;;;;;516961;28;1365;-71
2023/03/15 00:56:03;;;;;;;10.13;2.83;;;;;;;;;;515042;28;1314;-71
2023/03/15 00:56:21;;;;;;;10.77;2.78;;;;;;;;;;520792;28;1282;-71
2023/03/15 00:56:37;;;;;;;9.63;2.78;;;;;;;;;;519188;28;1288;-71
2023/03/15 00:56:52;;;;;;;10.90;2.97;;;;;;;;;;517063;28;1283;-71
2023/03/15 00:57:07;;;;;;;11.70;2.80;;;;;;;;;;519041;28;1303;-71
2023/03/15 00:57:23;;;;;;;9.70;2.63;;;;;;;;;;520435;28;1232;-71
2023/03/15 00:57:42;;;;;;;8.77;2.78;;;;;;;;;;521282;28;1298;-71
2023/03/15 00:57:57;;;;;;;9.27;2.75;;;;;;;;;;521528;28;1467;-71
2023/03/15 00:58:12;;;;;;;9.45;2.70;;;;;;;;;;520855;28;1374;-71
2023/03/15 00:58:27;;;;;;;9.43;2.70;;;;;;;;;;519905;28;1350;-71
2023/03/15 00:58:43;;;;;;;8.57;2.60;;;;;;;;;;517358;28;1406;-71
2023/03/15 00:58:59;;;;;;;9.63;2.90;;;;;;;;;;519124;28;1246;-71
2023/03/15 00:59:14;;;;;;;10.32;3.00;;;;;;;;;;521567;28;1352;-71
2023/03/15 00:59:33;;;;;;;9.43;2.83;;;;;;;;;;517726;28;1397;-71
2023/03/15 00:59:51;;;;;;;10.23;3.10;;;;;;;;;;518176;28;1333;-71
2023/03/15 01:00:11;;;;;;;10.63;3.08;;;;;;;;;;518545;28;1381;-71
2023/03/15 01:00:26;;;;;;;9.57;2.90;;;;;;;;;;519005;28;1393;-71
2023/03/15 01:00:41;;;;;;;8.80;2.90;;;;;;;;;;517988;28;1375;-72
2023/03/15 01:00:57;;;;;;;9.17;3.00;;;;;;;;;;521805;28;1322;-71
2023/03/15 01:01:16;;;;;;;10.20;3.13;;;;;;;;;;517781;28;1569;-71
2023/03/15 01:01:31;;;;;;;8.32;2.83;;;;;;;;;;519304;28;1353;-71
2023/03/15 01:01:46;;;;;;;7.27;2.47;;;;;;;;;;518144;28;1248;-70
2023/03/15 01:02:03;;;;;;;7.87;2.63;;;;;;;;;;516918;28;1045;-70
2023/03/15 01:02:21;;;;;;;9.18;2.88;;;;;;;;;;517224;28;1513;-71
2023/03/15 01:02:36;;;;;;;11.10;2.88;;;;;;;;;;519197;28;1304;-70
2023/03/15 01:02:53;;;;;;;10.73;2.80;;;;;;;;;;520258;28;1352;-71
2023/03/15 01:03:08;;;;;;;9.40;2.70;;;;;;;;;;518969;28;1473;-71
2023/03/15 01:03:23;;;;;;;8.07;2.80;;;;;;;;;;518322;28;1309;-71
2023/03/15 01:03:39;;;;;;;9.38;3.13;;;;;;;;;;519285;28;1480;-71
2023/03/15 01:03:55;;;;;;;8.23;2.85;;;;;;;;;;520995;28;1398;-71
2023/03/15 01:04:13;;;;;;;7.03;2.60;;;;;;;;;;519394;28;1313;-71
2023/03/15 01:04:30;;;;;;;8.82;2.80;;;;;;;;;;517293;28;1508;-71
2023/03/15 01:04:45;;;;;;;9.52;2.90;;;;;;;;;;517458;28;1448;-70
2023/03/15 01:05:00;;;;;;;9.98;2.83;;;;;;;;;;517087;28;1488;-70
2023/03/15 01:05:16;;;;;;;8.73;2.93;;;;;;;;;;519037;28;1313;-70
2023/03/15 01:05:31;;;;;;;9.63;3.07;;;;;;;;;;517201;28;1282;-70
2023/03/15 01:05:47;;;;;;;9.88;2.85;;;;;;;;;;516824;28;1920;-71
2023/03/15 01:06:25;;;;;;;9.70;2.77;;;;;;;;;;518436;28;1004;-71
2023/03/15 01:06:41;;;;;;;9.73;3.20;;;;;;;;;;520998;28;1398;-71
2023/03/15 01:06:57;;;;;;;10.33;3.30;;;;;;;;;;521679;28;1211;-71
2023/03/15 01:07:13;;;;;;;9.18;3.05;;;;;;;;;;522590;28;1376;-71
2023/03/15 01:07:28;;;;;;;8.83;3.00;;;;;;;;;;524521;28;1247;-71
2023/03/15 01:07:46;;;;;;;10.05;3.15;;;;;;;;;;525556;28;1084;-71
2023/03/15 01:08:01;;;;;;;10.20;2.90;;;;;;;;;;524569;28;1129;-70
2023/03/15 01:08:17;;;;;;;9.30;2.87;;;;;;;;;;523724;28;1254;-72
2023/03/15 01:08:32;;;;;;;9.07;2.92;;;;;;;;;;521630;28;1385;-71
2023/03/15 01:08:48;;;;;;;9.63;2.90;;;;;;;;;;520193;28;1358;-70
2023/03/15 01:09:04;;;;;;;9.60;2.88;;;;;;;;;;519715;28;1494;-71
2023/03/15 01:09:20;;;;;;;9.10;2.85;;;;;;;;;;519274;28;1386;-70
2023/03/15 01:09:35;;;;;;;9.50;2.78;;;;;;;;;;518434;28;1614;-71
2023/03/15 01:09:52;;;;;;;10.53;2.97;;;;;;;;;;521048;28;1284;-71
2023/03/15 01:10:08;;;;;;;10.95;3.20;;;;;;;;;;519804;28;1361;-71
2023/03/15 01:10:23;;;;;;;11.20;3.20;;;;;;;;;;517475;28;1288;-71
2023/03/15 01:10:38;;;;;;;10.00;2.93;;;;;;;;;;518366;28;1527;-71
2023/03/15 01:10:53;;;;;;;9.10;2.80;;;;;;;;;;516561;28;1473;-71
2023/03/15 01:11:23;;;;;;;9.43;2.90;;;;;;;;;;518401;28;1347;-71
2023/03/15 01:11:38;;;;;;;8.55;2.80;;;;;;;;;;516991;28;1655;-71
2023/03/15 01:11:53;;;;;;;8.47;2.83;;;;;;;;;;517987;28;1430;-71
2023/03/15 01:12:09;;;;;;;9.20;2.93;;;;;;;;;;521143;28;1478;-70
2023/03/15 01:12:24;;;;;;;9.18;2.88;;;;;;;;;;518318;28;1496;-71
2023/03/15 01:12:40;;;;;;;9.77;3.07;;;;;;;;;;519663;28;1320;-71
2023/03/15 01:12:55;;;;;;;10.63;3.35;;;;;;;;;;516657;28;1515;-71
2023/03/15 01:13:11;;;;;;;10.18;3.38;;;;;;;;;;519119;28;1567;-71
2023/03/15 01:13:26;;;;;;;9.20;3.00;;;;;;;;;;519592;28;1335;-71
2023/03/15 01:13:42;;;;;;;8.90;2.90;;;;;;;;;;519654;28;1499;-71
2023/03/15 01:13:58;;;;;;;9.00;2.83;;;;;;;;;;518908;28;1313;-71
2023/03/15 01:14:14;;;;;;;7.82;2.70;;;;;;;;;;519802;28;1435;-70
2023/03/15 01:14:30;;;;;;;8.43;2.93;;;;;;;;;;518659;28;1351;-70
2023/03/15 01:14:45;;;;;;;9.05;2.90;;;;;;;;;;520446;28;1323;-71
2023/03/15 01:15:03;;;;;;;10.45;3.10;;;;;;;;;;521368;28;1354;-70
2023/03/15 01:15:18;;;;;;;9.50;2.97;;;;;;;;;;518667;28;1282;-71
2023/03/15 01:15:34;;;;;;;7.57;2.67;;;;;;;;;;518337;28;1421;-71
2023/03/15 01:15:49;;;;;;;7.93;3.00;;;;;;;;;;519516;28;1380;-71
2023/03/15 01:16:05;;;;;;;8.80;3.17;;;;;;;;;;520147;28;1493;-71
2023/03/15 01:16:21;;;;;;;9.07;3.08;;;;;;;;;;518331;28;1229;-71
2023/03/15 01:16:36;;;;;;;8.68;2.83;;;;;;;;;;521384;28;1510;-71
2023/03/15 01:16:52;;;;;;;9.47;3.10;;;;;;;;;;520179;28;1221;-71
2023/03/15 01:17:07;;;;;;;9.50;3.23;;;;;;;;;;520093;28;1533;-71
2023/03/15 01:17:22;;;;;;;7.80;3.00;;;;;;;;;;519722;28;1291;-71
2023/03/15 01:17:38;;;;;;;8.07;3.00;;;;;;;;;;521925;28;1362;-71
2023/03/15 01:17:55;;;;;;;8.05;2.78;;;;;;;;;;520788;28;1598;-71
2023/03/15 01:18:10;;;;;;;9.15;2.80;;;;;;;;;;522702;28;1334;-70
2023/03/15 01:18:25;;;;;;;9.38;3.00;;;;;;;;;;518561;28;1546;-71
2023/03/15 01:18:42;;;;;;;9.37;3.00;;;;;;;;;;519452;28;1241;-71
2023/03/15 01:18:57;;;;;;;10.65;3.20;;;;;;;;;;518862;28;1265;-70
2023/03/15 01:19:12;;;;;;;9.33;3.20;;;;;;;;;;517845;28;1388;-71
2023/03/15 01:19:28;;;;;;;9.80;3.10;;;;;;;;;;518555;28;1260;-71
2023/03/15 01:19:43;;;;;;;10.27;3.08;;;;;;;;;;518750;28;1236;-70
2023/03/15 01:19:59;;;;;;;10.37;3.10;;;;;;;;;;516488;28;1325;-71
2023/03/15 01:20:14;;;;;;;10.73;3.00;;;;;;;;;;516482;28;1289;-71
2023/03/15 01:20:30;;;;;;;8.97;2.87;;;;;;;;;;516998;28;1488;-71
2023/03/15 01:20:45;;;;;;;9.88;3.28;;;;;;;;;;518319;28;1543;-71
2023/03/15 01:21:00;;;;;;;11.73;3.47;;;;;;;;;;520279;28;1345;-70
2023/03/15 01:21:16;;;;;;;10.43;3.40;;;;;;;;;;516014;28;1334;-70
2023/03/15 01:21:31;;;;;;;10.57;3.30;;;;;;;;;;516063;28;1405;-70
2023/03/15 01:21:47;;;;;;;10.88;3.05;;;;;;;;;;518819;28;1646;-71
2023/03/15 01:22:02;;;;;;;9.23;2.90;;;;;;;;;;517735;28;1572;-71
2023/03/15 01:22:19;;;;;;;8.30;2.77;;;;;;;;;;519549;28;1532;-70
2023/03/15 01:22:34;;;;;;;9.30;2.90;;;;;;;;;;518880;28;1511;-70
2023/03/15 01:22:49;;;;;;;9.70;2.87;;;;;;;;;;519013;28;1301;-71
2023/03/15 01:23:05;;;;;;;8.40;2.80;;;;;;;;;;519167;28;1455;-71
2023/03/15 01:23:20;;;;;;;8.82;3.00;;;;;;;;;;519836;28;1322;-70
2023/03/15 01:23:35;;;;;;;9.40;3.20;;;;;;;;;;517722;28;1334;-71
2023/03/15 01:23:52;;;;;;;10.60;3.10;;;;;;;;;;519531;28;1322;-71
2023/03/15 01:24:12;;;;;;;11.10;3.20;;;;;;;;;;519251;28;1541;-71
2023/03/15 01:24:27;;;;;;;10.48;3.22;;;;;;;;;;516448;28;1325;-71
2023/03/15 01:24:42;;;;;;;9.60;3.07;;;;;;;;;;517386;28;1564;-71
2023/03/15 01:24:58;;;;;;;9.75;3.10;;;;;;;;;;518922;28;1463;-71
2023/03/15 01:25:13;;;;;;;9.67;3.03;;;;;;;;;;518475;28;1341;-70
2023/03/15 01:25:29;;;;;;;9.10;3.10;;;;;;;;;;519819;28;1279;-71
2023/03/15 01:25:44;;;;;;;8.80;3.17;;;;;;;;;;517712;28;1268;-71
2023/03/15 01:26:00;;;;;;;8.70;3.00;;;;;;;;;;519374;28;1920;-72
2023/03/15 01:26:17;;;;;;;9.30;3.00;;;;;;;;;;519212;28;1602;-71
2023/03/15 01:26:32;;;;;;;9.88;3.05;;;;;;;;;;519407;28;1508;-71
2023/03/15 01:26:47;;;;;;;8.37;3.07;;;;;;;;;;520038;28;1382;-70
2023/03/15 01:27:03;;;;;;;7.28;2.92;;;;;;;;;;519862;28;1393;-71
2023/03/15 01:27:18;;;;;;;7.23;2.73;;;;;;;;;;516937;28;1378;-71
2023/03/15 01:27:34;;;;;;;7.78;2.88;;;;;;;;;;516750;28;1500;-71
2023/03/15 01:27:49;;;;;;;8.50;3.10;;;;;;;;;;517670;28;1227;-70
2023/03/15 01:28:05;;;;;;;8.63;2.92;;;;;;;;;;517412;28;1357;-71
2023/03/15 01:28:22;;;;;;;9.93;3.17;;;;;;;;;;519790;28;1218;-71
2023/03/15 01:28:38;;;;;;;10.35;3.20;;;;;;;;;;520820;28;1426;-71
2023/03/15 01:28:54;;;;;;;9.07;2.80;;;;;;;;;;519571;28;1430;-70
2023/03/15 01:29:10;;;;;;;7.80;2.70;;;;;;;;;;518070;28;1418;-71
2023/03/15 01:29:26;;;;;;;8.63;2.90;;;;;;;;;;520370;28;1279;-71
2023/03/15 01:29:41;;;;;;;9.60;3.08;;;;;;;;;;518606;28;1528;-71
2023/03/15 01:29:57;;;;;;;8.97;2.97;;;;;;;;;;520336;28;1521;-71
2023/03/15 01:30:12;;;;;;;9.13;3.00;;;;;;;;;;519206;28;1288;-71
2023/03/15 01:30:28;;;;;;;9.77;3.13;;;;;;;;;;521353;28;1315;-71
2023/03/15 01:30:50;;;;;;;9.37;3.37;;;;;;;;;;517432;28;1301;-71
2023/03/15 01:31:08;;;;;;;11.20;3.50;;;;;;;;;;518616;28;1543;-71
2023/03/15 01:31:27;;;;;;;10.43;3.25;;;;;;;;;;517300;28;1260;-71
2023/03/15 01:31:42;;;;;;;9.05;2.83;;;;;;;;;;517506;28;1265;-71
2023/03/15 01:31:58;;;;;;;9.10;2.90;;;;;;;;;;518977;28;1434;-72
2023/03/15 01:32:13;;;;;;;10.27;2.88;;;;;;;;;;516243;28;1303;-71
2023/03/15 01:32:28;;;;;;;10.73;3.07;;;;;;;;;;515902;28;1313;-71
2023/03/15 01:32:44;;;;;;;9.87;3.23;;;;;;;;;;516729;28;1417;-70
2023/03/15 01:32:59;;;;;;;8.65;3.08;;;;;;;;;;519772;28;1457;-71
2023/03/15 01:33:14;;;;;;;9.80;2.93;;;;;;;;;;520465;28;1576;-71
2023/03/15 01:33:30;;;;;;;9.48;2.83;;;;;;;;;;520769;28;1300;-71
2023/03/15 01:33:45;;;;;;;9.60;3.00;;;;;;;;;;517823;28;1467;-71
2023/03/15 01:34:01;;;;;;;9.63;3.03;;;;;;;;;;517412;28;1442;-71
2023/03/15 01:34:16;;;;;;;8.43;3.03;;;;;;;;;;518928;28;1346;-71
2023/03/15 01:34:32;;;;;;;8.03;3.10;;;;;;;;;;516630;28;1488;-71
2023/03/15 01:34:47;;;;;;;7.78;2.95;;;;;;;;;;516511;28;1600;-71
2023/03/15 01:35:03;;;;;;;8.30;2.97;;;;;;;;;;519354;28;1244;-70
2023/03/15 01:35:18;;;;;;;9.13;3.10;;;;;;;;;;518504;28;1296;-70
2023/03/15 01:35:33;;;;;;;9.17;3.00;;;;;;;;;;517368;28;1244;-71
2023/03/15 01:36:04;;;;;;;8.40;2.90;;;;;;;;;;519491;28;1519;-70
2023/03/15 01:36:19;;;;;;;8.07;3.15;;;;;;;;;;518988;28;1323;-70
2023/03/15 01:36:35;;;;;;;7.43;2.87;;;;;;;;;;517409;28;1249;-72
2023/03/15 01:36:54;;;;;;;7.93;3.00;;;;;;;;;;519878;28;1388;-71
2023/03/15 01:37:13;;;;;;;10.23;3.30;;;;;;;;;;517813;28;1302;-72
2023/03/15 01:37:28;;;;;;;9.75;3.20;;;;;;;;;;518366;28;1516;-70
2023/03/15 01:37:43;;;;;;;9.85;3.38;;;;;;;;;;517052;28;1364;-71
2023/03/15 01:37:59;;;;;;;10.43;3.40;;;;;;;;;;516311;28;1245;-71
2023/03/15 01:38:14;;;;;;;9.45;3.45;;;;;;;;;;516380;28;1298;-71
2023/03/15 01:38:30;;;;;;;9.60;3.70;;;;;;;;;;516615;28;1130;-70
2023/03/15 01:38:46;;;;;;;10.73;3.70;;;;;;;;;;518526;28;1374;-71
2023/03/15 01:39:01;;;;;;;9.70;3.50;;;;;;;;;;519135;28;1351;-69
2023/03/15 01:39:17;;;;;;;9.30;3.22;;;;;;;;;;517618;28;1166;-71
2023/03/15 01:39:32;;;;;;;9.10;3.20;;;;;;;;;;520954;28;1176;-71
2023/03/15 01:39:47;;;;;;;8.27;3.25;;;;;;;;;;517986;28;1314;-71